sensor_id;sensor_type;location;lat;lon;timestamp;P1;durP1;ratioP1;P2;durP2;ratioP2
11447;SDS011;43755;49.736;8.734;2023-03-20T00:01:52;5.25;;;4.25;;
11447;SDS011;43755;49.736;8.734;2023-03-20T00:03:53;4.43;;;4.03;;
11447;SDS011;43755;49.736;8.734;2023-03-20T00:05:55;4.70;;;4.30;;
11447;SDS011;43755;49.736;8.734;2023-03-20T00:07:56;4.85;;;4.35;;
11447;SDS011;43755;49.736;8.734;2023-03-20T00:09:58;4.80;;;4.40;;
11447;SDS011;43755;49.736;8.734;2023-03-20T00:12:01;4.95;;;4.55;;
11447;SDS011;43755;49.736;8.734;2023-03-20T00:14:03;5.18;;;4.78;;
11447;SDS011;43755;49.736;8.734;2023-03-20T00:16:07;5.22;;;4.32;;
11447;SDS011;43755;49.736;8.734;2023-03-20T00:18:13;4.97;;;4.57;;
11447;SDS011;43755;49.736;8.734;2023-03-20T00:20:17;4.70;;;4.30;;
11447;SDS011;43755;49.736;8.734;2023-03-20T00:22:19;5.05;;;4.55;;
11447;SDS011;43755;49.736;8.734;2023-03-20T00:24:21;4.57;;;4.28;;
11447;SDS011;43755;49.736;8.734;2023-03-20T00:26:24;4.88;;;4.47;;
11447;SDS011;43755;49.736;8.734;2023-03-20T00:28:33;5.53;;;4.60;;
11447;SDS011;43755;49.736;8.734;2023-03-20T00:30:39;5.00;;;4.60;;
11447;SDS011;43755;49.736;8.734;2023-03-20T00:32:41;5.13;;;4.63;;
11447;SDS011;43755;49.736;8.734;2023-03-20T00:34:42;5.20;;;4.70;;
11447;SDS011;43755;49.736;8.734;2023-03-20T00:36:43;5.20;;;4.80;;
11447;SDS011;43755;49.736;8.734;2023-03-20T00:38:45;5.05;;;4.55;;
11447;SDS011;43755;49.736;8.734;2023-03-20T00:40:46;5.38;;;4.97;;
11447;SDS011;43755;49.736;8.734;2023-03-20T00:42:49;5.60;;;5.13;;
11447;SDS011;43755;49.736;8.734;2023-03-20T00:44:58;5.07;;;4.70;;
11447;SDS011;43755;49.736;8.734;2023-03-20T00:47:02;5.10;;;4.70;;
11447;SDS011;43755;49.736;8.734;2023-03-20T00:49:07;5.93;;;5.40;;
11447;SDS011;43755;49.736;8.734;2023-03-20T00:51:10;6.18;;;5.68;;
11447;SDS011;43755;49.736;8.734;2023-03-20T00:53:11;6.35;;;5.57;;
11447;SDS011;43755;49.736;8.734;2023-03-20T00:55:13;6.20;;;5.70;;
11447;SDS011;43755;49.736;8.734;2023-03-20T00:57:15;6.20;;;5.60;;
11447;SDS011;43755;49.736;8.734;2023-03-20T00:59:21;6.57;;;5.97;;
11447;SDS011;43755;49.736;8.734;2023-03-20T01:01:28;6.72;;;6.13;;
11447;SDS011;43755;49.736;8.734;2023-03-20T01:03:30;7.45;;;6.65;;
11447;SDS011;43755;49.736;8.734;2023-03-20T01:05:32;6.90;;;6.30;;
11447;SDS011;43755;49.736;8.734;2023-03-20T01:07:33;7.05;;;6.38;;
11447;SDS011;43755;49.736;8.734;2023-03-20T01:09:35;6.78;;;6.28;;
11447;SDS011;43755;49.736;8.734;2023-03-20T01:11:36;7.80;;;7.13;;
11447;SDS011;43755;49.736;8.734;2023-03-20T01:13:40;8.80;;;8.00;;
11447;SDS011;43755;49.736;8.734;2023-03-20T01:15:41;8.57;;;7.78;;
11447;SDS011;43755;49.736;8.734;2023-03-20T01:17:45;9.45;;;8.50;;
11447;SDS011;43755;49.736;8.734;2023-03-20T01:19:46;9.40;;;8.60;;
11447;SDS011;43755;49.736;8.734;2023-03-20T01:21:48;8.52;;;7.82;;
11447;SDS011;43755;49.736;8.734;2023-03-20T01:23:50;10.35;;;9.35;;
11447;SDS011;43755;49.736;8.734;2023-03-20T01:25:51;10.48;;;9.52;;
11447;SDS011;43755;49.736;8.734;2023-03-20T01:27:53;10.15;;;9.35;;
11447;SDS011;43755;49.736;8.734;2023-03-20T01:29:56;11.10;;;10.20;;
11447;SDS011;43755;49.736;8.734;2023-03-20T01:31:58;11.50;;;10.43;;
11447;SDS011;43755;49.736;8.734;2023-03-20T01:34:01;11.15;;;10.10;;
11447;SDS011;43755;49.736;8.734;2023-03-20T01:36:03;12.02;;;10.93;;
11447;SDS011;43755;49.736;8.734;2023-03-20T01:38:08;11.93;;;10.82;;
11447;SDS011;43755;49.736;8.734;2023-03-20T01:40:21;12.10;;;11.10;;
11447;SDS011;43755;49.736;8.734;2023-03-20T01:42:30;12.48;;;11.38;;
11447;SDS011;43755;49.736;8.734;2023-03-20T01:44:33;12.75;;;11.70;;
11447;SDS011;43755;49.736;8.734;2023-03-20T01:46:35;12.50;;;11.40;;
11447;SDS011;43755;49.736;8.734;2023-03-20T01:50:58;12.80;;;11.45;;
11447;SDS011;43755;49.736;8.734;2023-03-20T01:53:01;12.80;;;11.75;;
11447;SDS011;43755;49.736;8.734;2023-03-20T01:55:08;12.38;;;11.18;;
11447;SDS011;43755;49.736;8.734;2023-03-20T01:57:10;12.52;;;11.32;;
11447;SDS011;43755;49.736;8.734;2023-03-20T01:59:16;12.50;;;11.40;;
11447;SDS011;43755;49.736;8.734;2023-03-20T02:01:20;11.68;;;10.55;;
11447;SDS011;43755;49.736;8.734;2023-03-20T02:03:24;11.95;;;10.95;;
11447;SDS011;43755;49.736;8.734;2023-03-20T02:05:26;12.02;;;10.93;;
11447;SDS011;43755;49.736;8.734;2023-03-20T02:07:29;12.75;;;11.73;;
11447;SDS011;43755;49.736;8.734;2023-03-20T02:09:33;12.00;;;11.00;;
11447;SDS011;43755;49.736;8.734;2023-03-20T02:11:34;13.18;;;11.82;;
11447;SDS011;43755;49.736;8.734;2023-03-20T02:13:38;14.45;;;12.05;;
11447;SDS011;43755;49.736;8.734;2023-03-20T02:15:53;12.15;;;10.85;;
11447;SDS011;43755;49.736;8.734;2023-03-20T02:17:56;11.82;;;10.63;;
11447;SDS011;43755;49.736;8.734;2023-03-20T02:20:00;12.95;;;10.30;;
11447;SDS011;43755;49.736;8.734;2023-03-20T02:22:19;11.82;;;10.70;;
11447;SDS011;43755;49.736;8.734;2023-03-20T02:24:52;12.23;;;11.02;;
11447;SDS011;43755;49.736;8.734;2023-03-20T02:27:22;10.88;;;9.85;;
11447;SDS011;43755;49.736;8.734;2023-03-20T02:32:08;10.15;;;9.25;;
11447;SDS011;43755;49.736;8.734;2023-03-20T02:34:45;10.02;;;9.02;;
11447;SDS011;43755;49.736;8.734;2023-03-20T02:37:02;9.88;;;8.98;;
11447;SDS011;43755;49.736;8.734;2023-03-20T02:39:35;10.20;;;9.20;;
11447;SDS011;43755;49.736;8.734;2023-03-20T02:41:57;10.38;;;9.45;;
11447;SDS011;43755;49.736;8.734;2023-03-20T02:44:04;10.07;;;9.02;;
11447;SDS011;43755;49.736;8.734;2023-03-20T02:46:12;9.90;;;8.80;;
11447;SDS011;43755;49.736;8.734;2023-03-20T02:48:28;8.48;;;7.68;;
11447;SDS011;43755;49.736;8.734;2023-03-20T02:50:37;8.82;;;8.02;;
11447;SDS011;43755;49.736;8.734;2023-03-20T02:52:47;8.80;;;8.00;;
11447;SDS011;43755;49.736;8.734;2023-03-20T02:54:59;8.60;;;7.85;;
11447;SDS011;43755;49.736;8.734;2023-03-20T02:57:08;8.52;;;7.72;;
11447;SDS011;43755;49.736;8.734;2023-03-20T02:59:18;7.90;;;7.20;;
11447;SDS011;43755;49.736;8.734;2023-03-20T03:01:29;7.35;;;6.75;;
11447;SDS011;43755;49.736;8.734;2023-03-20T03:03:34;7.38;;;6.78;;
11447;SDS011;43755;49.736;8.734;2023-03-20T03:05:39;6.80;;;6.03;;
11447;SDS011;43755;49.736;8.734;2023-03-20T03:07:45;6.70;;;6.07;;
11447;SDS011;43755;49.736;8.734;2023-03-20T03:09:51;6.88;;;6.28;;
11447;SDS011;43755;49.736;8.734;2023-03-20T03:11:58;6.43;;;5.93;;
11447;SDS011;43755;49.736;8.734;2023-03-20T03:14:03;7.13;;;6.53;;
11447;SDS011;43755;49.736;8.734;2023-03-20T03:16:06;6.90;;;6.30;;
11447;SDS011;43755;49.736;8.734;2023-03-20T03:18:11;6.38;;;5.82;;
11447;SDS011;43755;49.736;8.734;2023-03-20T03:20:18;6.55;;;6.05;;
11447;SDS011;43755;49.736;8.734;2023-03-20T03:22:22;6.97;;;6.20;;
11447;SDS011;43755;49.736;8.734;2023-03-20T03:24:26;6.82;;;6.20;;
11447;SDS011;43755;49.736;8.734;2023-03-20T03:26:31;6.63;;;6.03;;
11447;SDS011;43755;49.736;8.734;2023-03-20T03:28:38;6.50;;;6.00;;
11447;SDS011;43755;49.736;8.734;2023-03-20T03:30:43;6.65;;;6.05;;
11447;SDS011;43755;49.736;8.734;2023-03-20T03:32:46;6.53;;;5.95;;
11447;SDS011;43755;49.736;8.734;2023-03-20T03:34:49;7.47;;;6.85;;
11447;SDS011;43755;49.736;8.734;2023-03-20T03:36:52;8.38;;;7.57;;
11447;SDS011;43755;49.736;8.734;2023-03-20T03:39:03;8.57;;;7.75;;
11447;SDS011;43755;49.736;8.734;2023-03-20T03:41:16;8.07;;;7.28;;
11447;SDS011;43755;49.736;8.734;2023-03-20T03:43:21;8.20;;;7.53;;
11447;SDS011;43755;49.736;8.734;2023-03-20T03:45:31;7.68;;;6.97;;
11447;SDS011;43755;49.736;8.734;2023-03-20T03:47:36;9.05;;;8.25;;
11447;SDS011;43755;49.736;8.734;2023-03-20T03:49:43;9.50;;;8.70;;
11447;SDS011;43755;49.736;8.734;2023-03-20T03:51:49;9.23;;;8.32;;
11447;SDS011;43755;49.736;8.734;2023-03-20T03:53:56;9.15;;;8.35;;
11447;SDS011;43755;49.736;8.734;2023-03-20T03:56:02;10.20;;;9.30;;
11447;SDS011;43755;49.736;8.734;2023-03-20T03:58:09;10.00;;;9.18;;
11447;SDS011;43755;49.736;8.734;2023-03-20T04:00:14;10.63;;;9.65;;
11447;SDS011;43755;49.736;8.734;2023-03-20T04:02:20;12.27;;;11.07;;
11447;SDS011;43755;49.736;8.734;2023-03-20T04:04:24;12.85;;;11.57;;
11447;SDS011;43755;49.736;8.734;2023-03-20T04:06:27;13.20;;;11.90;;
11447;SDS011;43755;49.736;8.734;2023-03-20T04:08:29;13.75;;;12.45;;
11447;SDS011;43755;49.736;8.734;2023-03-20T04:10:30;13.13;;;11.82;;
11447;SDS011;43755;49.736;8.734;2023-03-20T04:12:33;13.18;;;11.88;;
11447;SDS011;43755;49.736;8.734;2023-03-20T04:14:36;14.38;;;13.07;;
11447;SDS011;43755;49.736;8.734;2023-03-20T04:16:37;14.23;;;12.73;;
11447;SDS011;43755;49.736;8.734;2023-03-20T04:18:40;15.27;;;13.75;;
11447;SDS011;43755;49.736;8.734;2023-03-20T04:20:41;14.57;;;13.18;;
11447;SDS011;43755;49.736;8.734;2023-03-20T04:22:43;14.45;;;13.00;;
11447;SDS011;43755;49.736;8.734;2023-03-20T04:24:44;15.43;;;13.73;;
11447;SDS011;43755;49.736;8.734;2023-03-20T04:26:46;16.20;;;14.02;;
11447;SDS011;43755;49.736;8.734;2023-03-20T04:28:49;15.15;;;13.60;;
11447;SDS011;43755;49.736;8.734;2023-03-20T04:30:51;14.88;;;13.20;;
11447;SDS011;43755;49.736;8.734;2023-03-20T04:32:53;15.45;;;13.85;;
11447;SDS011;43755;49.736;8.734;2023-03-20T04:34:55;14.93;;;12.95;;
11447;SDS011;43755;49.736;8.734;2023-03-20T04:36:57;14.80;;;13.30;;
11447;SDS011;43755;49.736;8.734;2023-03-20T04:38:59;13.80;;;12.30;;
11447;SDS011;43755;49.736;8.734;2023-03-20T04:41:01;13.95;;;12.50;;
11447;SDS011;43755;49.736;8.734;2023-03-20T04:43:03;13.40;;;12.00;;
11447;SDS011;43755;49.736;8.734;2023-03-20T04:45:05;14.05;;;12.38;;
11447;SDS011;43755;49.736;8.734;2023-03-20T04:47:07;15.40;;;13.45;;
11447;SDS011;43755;49.736;8.734;2023-03-20T04:49:09;14.75;;;12.35;;
11447;SDS011;43755;49.736;8.734;2023-03-20T04:51:12;14.07;;;12.65;;
11447;SDS011;43755;49.736;8.734;2023-03-20T04:53:13;13.23;;;11.25;;
11447;SDS011;43755;49.736;8.734;2023-03-20T04:55:15;12.95;;;11.55;;
11447;SDS011;43755;49.736;8.734;2023-03-20T04:57:17;14.13;;;12.27;;
11447;SDS011;43755;49.736;8.734;2023-03-20T04:59:18;14.32;;;12.82;;
11447;SDS011;43755;49.736;8.734;2023-03-20T05:01:20;14.30;;;12.80;;
11447;SDS011;43755;49.736;8.734;2023-03-20T05:03:22;13.88;;;12.48;;
11447;SDS011;43755;49.736;8.734;2023-03-20T05:05:23;15.57;;;13.57;;
11447;SDS011;43755;49.736;8.734;2023-03-20T05:07:26;14.65;;;13.05;;
11447;SDS011;43755;49.736;8.734;2023-03-20T05:09:27;17.40;;;14.18;;
11447;SDS011;43755;49.736;8.734;2023-03-20T05:11:29;18.52;;;14.27;;
11447;SDS011;43755;49.736;8.734;2023-03-20T05:13:30;17.10;;;13.98;;
11447;SDS011;43755;49.736;8.734;2023-03-20T05:15:31;15.13;;;13.25;;
11447;SDS011;43755;49.736;8.734;2023-03-20T05:17:33;15.10;;;13.45;;
11447;SDS011;43755;49.736;8.734;2023-03-20T05:19:34;15.98;;;14.23;;
11447;SDS011;43755;49.736;8.734;2023-03-20T05:21:37;16.63;;;14.82;;
11447;SDS011;43755;49.736;8.734;2023-03-20T05:23:40;18.75;;;16.02;;
11447;SDS011;43755;49.736;8.734;2023-03-20T05:25:41;17.80;;;15.60;;
11447;SDS011;43755;49.736;8.734;2023-03-20T05:27:44;19.65;;;15.07;;
11447;SDS011;43755;49.736;8.734;2023-03-20T05:29:46;17.05;;;14.48;;
11447;SDS011;43755;49.736;8.734;2023-03-20T05:31:47;17.15;;;15.18;;
11447;SDS011;43755;49.736;8.734;2023-03-20T05:33:49;19.08;;;14.95;;
11447;SDS011;43755;49.736;8.734;2023-03-20T05:35:50;15.82;;;13.88;;
11447;SDS011;43755;49.736;8.734;2023-03-20T05:37:52;16.70;;;14.30;;
11447;SDS011;43755;49.736;8.734;2023-03-20T05:39:54;17.40;;;14.63;;
11447;SDS011;43755;49.736;8.734;2023-03-20T05:41:56;16.85;;;13.98;;
11447;SDS011;43755;49.736;8.734;2023-03-20T05:43:57;17.90;;;14.55;;
11447;SDS011;43755;49.736;8.734;2023-03-20T05:45:59;17.67;;;14.60;;
11447;SDS011;43755;49.736;8.734;2023-03-20T05:48:00;17.02;;;14.07;;
11447;SDS011;43755;49.736;8.734;2023-03-20T05:50:01;16.48;;;14.73;;
11447;SDS011;43755;49.736;8.734;2023-03-20T05:52:03;16.55;;;14.48;;
11447;SDS011;43755;49.736;8.734;2023-03-20T05:54:05;16.50;;;14.48;;
11447;SDS011;43755;49.736;8.734;2023-03-20T05:56:08;17.02;;;14.65;;
11447;SDS011;43755;49.736;8.734;2023-03-20T05:58:09;18.73;;;15.02;;
11447;SDS011;43755;49.736;8.734;2023-03-20T06:00:12;15.82;;;14.13;;
11447;SDS011;43755;49.736;8.734;2023-03-20T06:02:14;18.70;;;15.85;;
11447;SDS011;43755;49.736;8.734;2023-03-20T06:04:16;18.05;;;15.38;;
11447;SDS011;43755;49.736;8.734;2023-03-20T06:06:17;17.58;;;15.38;;
11447;SDS011;43755;49.736;8.734;2023-03-20T06:08:19;17.38;;;15.38;;
11447;SDS011;43755;49.736;8.734;2023-03-20T06:10:20;17.80;;;15.00;;
11447;SDS011;43755;49.736;8.734;2023-03-20T06:12:23;19.33;;;15.95;;
11447;SDS011;43755;49.736;8.734;2023-03-20T06:14:24;20.40;;;16.42;;
11447;SDS011;43755;49.736;8.734;2023-03-20T06:16:26;19.88;;;17.20;;
11447;SDS011;43755;49.736;8.734;2023-03-20T06:18:27;21.02;;;16.98;;
11447;SDS011;43755;49.736;8.734;2023-03-20T06:20:29;21.95;;;17.50;;
11447;SDS011;43755;49.736;8.734;2023-03-20T06:22:31;21.15;;;18.10;;
11447;SDS011;43755;49.736;8.734;2023-03-20T06:24:32;23.60;;;18.88;;
11447;SDS011;43755;49.736;8.734;2023-03-20T06:26:34;21.58;;;18.55;;
11447;SDS011;43755;49.736;8.734;2023-03-20T06:28:37;22.77;;;19.02;;
11447;SDS011;43755;49.736;8.734;2023-03-20T06:30:39;22.52;;;17.85;;
11447;SDS011;43755;49.736;8.734;2023-03-20T06:32:41;21.25;;;18.75;;
11447;SDS011;43755;49.736;8.734;2023-03-20T06:34:42;24.05;;;19.50;;
11447;SDS011;43755;49.736;8.734;2023-03-20T06:36:44;23.25;;;19.17;;
11447;SDS011;43755;49.736;8.734;2023-03-20T06:38:45;24.77;;;19.15;;
11447;SDS011;43755;49.736;8.734;2023-03-20T06:40:47;22.00;;;17.65;;
11447;SDS011;43755;49.736;8.734;2023-03-20T06:42:48;20.63;;;17.88;;
11447;SDS011;43755;49.736;8.734;2023-03-20T06:44:51;19.52;;;16.48;;
11447;SDS011;43755;49.736;8.734;2023-03-20T06:46:52;19.85;;;16.83;;
11447;SDS011;43755;49.736;8.734;2023-03-20T06:48:54;23.48;;;18.60;;
11447;SDS011;43755;49.736;8.734;2023-03-20T06:50:55;21.73;;;17.33;;
11447;SDS011;43755;49.736;8.734;2023-03-20T06:52:57;18.95;;;16.95;;
11447;SDS011;43755;49.736;8.734;2023-03-20T06:54:58;19.92;;;17.40;;
11447;SDS011;43755;49.736;8.734;2023-03-20T06:57:00;23.88;;;18.95;;
11447;SDS011;43755;49.736;8.734;2023-03-20T06:59:01;23.60;;;17.65;;
11447;SDS011;43755;49.736;8.734;2023-03-20T07:01:08;19.77;;;16.90;;
11447;SDS011;43755;49.736;8.734;2023-03-20T07:03:11;18.85;;;16.00;;
11447;SDS011;43755;49.736;8.734;2023-03-20T07:05:12;18.63;;;15.48;;
11447;SDS011;43755;49.736;8.734;2023-03-20T07:07:14;21.63;;;17.17;;
11447;SDS011;43755;49.736;8.734;2023-03-20T07:09:16;18.05;;;15.32;;
11447;SDS011;43755;49.736;8.734;2023-03-20T07:11:17;22.55;;;18.30;;
11447;SDS011;43755;49.736;8.734;2023-03-20T07:13:19;21.27;;;18.58;;
11447;SDS011;43755;49.736;8.734;2023-03-20T07:15:20;19.83;;;17.10;;
11447;SDS011;43755;49.736;8.734;2023-03-20T07:17:23;22.42;;;17.70;;
11447;SDS011;43755;49.736;8.734;2023-03-20T07:19:25;20.10;;;17.10;;
11447;SDS011;43755;49.736;8.734;2023-03-20T07:21:27;23.95;;;17.80;;
11447;SDS011;43755;49.736;8.734;2023-03-20T07:23:29;20.35;;;16.80;;
11447;SDS011;43755;49.736;8.734;2023-03-20T07:25:33;19.73;;;17.30;;
11447;SDS011;43755;49.736;8.734;2023-03-20T07:27:34;19.38;;;16.80;;
11447;SDS011;43755;49.736;8.734;2023-03-20T07:29:36;20.92;;;17.02;;
11447;SDS011;43755;49.736;8.734;2023-03-20T07:31:38;20.85;;;17.63;;
11447;SDS011;43755;49.736;8.734;2023-03-20T07:33:40;20.85;;;17.77;;
11447;SDS011;43755;49.736;8.734;2023-03-20T07:35:42;20.63;;;18.42;;
11447;SDS011;43755;49.736;8.734;2023-03-20T07:37:43;19.95;;;17.33;;
11447;SDS011;43755;49.736;8.734;2023-03-20T07:39:45;19.98;;;17.88;;
11447;SDS011;43755;49.736;8.734;2023-03-20T07:41:46;20.73;;;18.52;;
11447;SDS011;43755;49.736;8.734;2023-03-20T07:43:47;22.50;;;20.10;;
11447;SDS011;43755;49.736;8.734;2023-03-20T07:45:49;26.73;;;20.80;;
11447;SDS011;43755;49.736;8.734;2023-03-20T07:47:50;26.42;;;20.77;;
11447;SDS011;43755;49.736;8.734;2023-03-20T07:49:53;22.92;;;19.83;;
11447;SDS011;43755;49.736;8.734;2023-03-20T07:51:55;22.83;;;19.15;;
11447;SDS011;43755;49.736;8.734;2023-03-20T07:53:56;22.42;;;20.02;;
11447;SDS011;43755;49.736;8.734;2023-03-20T07:55:57;21.27;;;18.42;;
11447;SDS011;43755;49.736;8.734;2023-03-20T07:57:59;20.83;;;17.15;;
11447;SDS011;43755;49.736;8.734;2023-03-20T08:00:00;18.85;;;16.95;;
11447;SDS011;43755;49.736;8.734;2023-03-20T08:02:03;18.88;;;16.85;;
11447;SDS011;43755;49.736;8.734;2023-03-20T08:04:04;20.60;;;17.65;;
11447;SDS011;43755;49.736;8.734;2023-03-20T08:06:08;20.20;;;18.10;;
11447;SDS011;43755;49.736;8.734;2023-03-20T08:08:09;20.63;;;18.35;;
11447;SDS011;43755;49.736;8.734;2023-03-20T08:10:11;20.67;;;18.10;;
11447;SDS011;43755;49.736;8.734;2023-03-20T08:12:12;24.63;;;19.75;;
11447;SDS011;43755;49.736;8.734;2023-03-20T08:14:16;22.05;;;18.85;;
11447;SDS011;43755;49.736;8.734;2023-03-20T08:16:18;20.50;;;17.70;;
11447;SDS011;43755;49.736;8.734;2023-03-20T08:18:19;22.65;;;20.25;;
11447;SDS011;43755;49.736;8.734;2023-03-20T08:20:21;21.20;;;18.73;;
11447;SDS011;43755;49.736;8.734;2023-03-20T08:22:24;24.67;;;21.00;;
11447;SDS011;43755;49.736;8.734;2023-03-20T08:24:25;25.17;;;20.45;;
11447;SDS011;43755;49.736;8.734;2023-03-20T08:26:26;22.15;;;19.75;;
11447;SDS011;43755;49.736;8.734;2023-03-20T08:28:28;24.30;;;20.30;;
11447;SDS011;43755;49.736;8.734;2023-03-20T08:30:30;23.65;;;20.40;;
11447;SDS011;43755;49.736;8.734;2023-03-20T08:32:31;21.20;;;18.88;;
11447;SDS011;43755;49.736;8.734;2023-03-20T08:34:33;20.75;;;17.70;;
11447;SDS011;43755;49.736;8.734;2023-03-20T08:36:34;21.23;;;17.30;;
11447;SDS011;43755;49.736;8.734;2023-03-20T08:38:37;18.40;;;16.13;;
11447;SDS011;43755;49.736;8.734;2023-03-20T08:40:39;17.27;;;15.38;;
11447;SDS011;43755;49.736;8.734;2023-03-20T08:42:41;15.52;;;13.55;;
11447;SDS011;43755;49.736;8.734;2023-03-20T08:44:43;15.02;;;13.43;;
11447;SDS011;43755;49.736;8.734;2023-03-20T08:46:45;14.52;;;13.00;;
11447;SDS011;43755;49.736;8.734;2023-03-20T08:48:46;14.93;;;13.40;;
11447;SDS011;43755;49.736;8.734;2023-03-20T08:50:47;18.05;;;15.18;;
11447;SDS011;43755;49.736;8.734;2023-03-20T08:52:49;17.17;;;15.30;;
11447;SDS011;43755;49.736;8.734;2023-03-20T08:54:52;18.77;;;16.77;;
11447;SDS011;43755;49.736;8.734;2023-03-20T08:56:53;25.02;;;20.92;;
11447;SDS011;43755;49.736;8.734;2023-03-20T08:58:55;27.55;;;21.05;;
11447;SDS011;43755;49.736;8.734;2023-03-20T09:00:56;27.05;;;23.13;;
11447;SDS011;43755;49.736;8.734;2023-03-20T09:03:03;34.42;;;25.40;;
11447;SDS011;43755;49.736;8.734;2023-03-20T09:05:05;33.38;;;25.35;;
11447;SDS011;43755;49.736;8.734;2023-03-20T09:07:07;31.90;;;25.02;;
11447;SDS011;43755;49.736;8.734;2023-03-20T09:09:08;35.03;;;25.42;;
11447;SDS011;43755;49.736;8.734;2023-03-20T09:11:11;34.03;;;25.83;;
11447;SDS011;43755;49.736;8.734;2023-03-20T09:13:13;34.35;;;26.27;;
11447;SDS011;43755;49.736;8.734;2023-03-20T09:15:14;34.38;;;27.00;;
11447;SDS011;43755;49.736;8.734;2023-03-20T09:17:16;35.22;;;26.25;;
11447;SDS011;43755;49.736;8.734;2023-03-20T09:19:17;32.35;;;26.40;;
11447;SDS011;43755;49.736;8.734;2023-03-20T09:21:19;33.67;;;27.17;;
11447;SDS011;43755;49.736;8.734;2023-03-20T09:23:20;37.90;;;27.58;;
11447;SDS011;43755;49.736;8.734;2023-03-20T09:25:22;35.65;;;28.02;;
11447;SDS011;43755;49.736;8.734;2023-03-20T09:27:25;35.03;;;26.05;;
11447;SDS011;43755;49.736;8.734;2023-03-20T09:29:26;36.00;;;27.20;;
11447;SDS011;43755;49.736;8.734;2023-03-20T09:31:28;34.05;;;27.30;;
11447;SDS011;43755;49.736;8.734;2023-03-20T09:33:29;33.97;;;26.77;;
11447;SDS011;43755;49.736;8.734;2023-03-20T09:35:31;34.78;;;26.45;;
11447;SDS011;43755;49.736;8.734;2023-03-20T09:37:32;34.55;;;25.08;;
11447;SDS011;43755;49.736;8.734;2023-03-20T09:39:33;30.17;;;24.35;;
11447;SDS011;43755;49.736;8.734;2023-03-20T09:41:35;30.23;;;25.00;;
11447;SDS011;43755;49.736;8.734;2023-03-20T09:43:42;27.85;;;23.23;;
11447;SDS011;43755;49.736;8.734;2023-03-20T09:45:50;25.52;;;22.50;;
11447;SDS011;43755;49.736;8.734;2023-03-20T09:48:02;26.95;;;21.52;;
11447;SDS011;43755;49.736;8.734;2023-03-20T09:50:20;28.15;;;22.27;;
11447;SDS011;43755;49.736;8.734;2023-03-20T09:52:29;26.20;;;21.17;;
11447;SDS011;43755;49.736;8.734;2023-03-20T09:54:33;27.38;;;21.92;;
11447;SDS011;43755;49.736;8.734;2023-03-20T09:56:39;28.70;;;23.70;;
11447;SDS011;43755;49.736;8.734;2023-03-20T09:58:42;30.48;;;22.38;;
11447;SDS011;43755;49.736;8.734;2023-03-20T10:00:49;24.40;;;20.77;;
11447;SDS011;43755;49.736;8.734;2023-03-20T10:02:51;22.73;;;18.90;;
11447;SDS011;43755;49.736;8.734;2023-03-20T10:04:56;18.20;;;15.60;;
11447;SDS011;43755;49.736;8.734;2023-03-20T10:06:58;19.17;;;16.80;;
11447;SDS011;43755;49.736;8.734;2023-03-20T10:09:05;22.45;;;17.80;;
11447;SDS011;43755;49.736;8.734;2023-03-20T10:11:18;23.98;;;18.75;;
11447;SDS011;43755;49.736;8.734;2023-03-20T10:13:38;21.83;;;18.50;;
11447;SDS011;43755;49.736;8.734;2023-03-20T10:15:56;23.23;;;19.70;;
11447;SDS011;43755;49.736;8.734;2023-03-20T10:18:07;23.67;;;18.15;;
11447;SDS011;43755;49.736;8.734;2023-03-20T10:20:20;24.55;;;18.95;;
11447;SDS011;43755;49.736;8.734;2023-03-20T10:22:30;21.88;;;18.70;;
11447;SDS011;43755;49.736;8.734;2023-03-20T10:24:35;23.10;;;17.92;;
11447;SDS011;43755;49.736;8.734;2023-03-20T10:26:40;21.95;;;18.40;;
11447;SDS011;43755;49.736;8.734;2023-03-20T10:28:42;23.48;;;18.42;;
11447;SDS011;43755;49.736;8.734;2023-03-20T10:30:53;24.05;;;18.67;;
11447;SDS011;43755;49.736;8.734;2023-03-20T10:33:10;23.45;;;19.20;;
11447;SDS011;43755;49.736;8.734;2023-03-20T10:35:26;21.92;;;17.05;;
11447;SDS011;43755;49.736;8.734;2023-03-20T10:37:39;21.67;;;18.90;;
11447;SDS011;43755;49.736;8.734;2023-03-20T10:39:50;22.83;;;19.05;;
11447;SDS011;43755;49.736;8.734;2023-03-20T10:41:59;20.83;;;18.02;;
11447;SDS011;43755;49.736;8.734;2023-03-20T10:44:03;21.70;;;19.40;;
11447;SDS011;43755;49.736;8.734;2023-03-20T10:46:08;22.60;;;18.55;;
11447;SDS011;43755;49.736;8.734;2023-03-20T10:48:15;22.90;;;20.42;;
11447;SDS011;43755;49.736;8.734;2023-03-20T10:50:21;23.27;;;19.88;;
11447;SDS011;43755;49.736;8.734;2023-03-20T10:52:26;22.63;;;19.25;;
11447;SDS011;43755;49.736;8.734;2023-03-20T10:54:31;20.77;;;17.83;;
11447;SDS011;43755;49.736;8.734;2023-03-20T10:56:35;20.65;;;18.25;;
11447;SDS011;43755;49.736;8.734;2023-03-20T10:58:41;18.75;;;16.75;;
11447;SDS011;43755;49.736;8.734;2023-03-20T11:00:45;19.98;;;15.82;;
11447;SDS011;43755;49.736;8.734;2023-03-20T11:02:47;16.95;;;14.48;;
11447;SDS011;43755;49.736;8.734;2023-03-20T11:04:49;20.15;;;16.73;;
11447;SDS011;43755;49.736;8.734;2023-03-20T11:06:51;18.67;;;15.35;;
11447;SDS011;43755;49.736;8.734;2023-03-20T11:09:08;18.73;;;15.85;;
11447;SDS011;43755;49.736;8.734;2023-03-20T11:11:12;20.50;;;15.75;;
11447;SDS011;43755;49.736;8.734;2023-03-20T11:13:21;20.23;;;15.77;;
11447;SDS011;43755;49.736;8.734;2023-03-20T11:15:26;19.25;;;15.63;;
11447;SDS011;43755;49.736;8.734;2023-03-20T11:17:31;17.10;;;14.65;;
11447;SDS011;43755;49.736;8.734;2023-03-20T11:19:34;12.57;;;11.20;;
11447;SDS011;43755;49.736;8.734;2023-03-20T11:21:43;14.50;;;12.95;;
11447;SDS011;43755;49.736;8.734;2023-03-20T11:23:46;14.70;;;12.90;;
11447;SDS011;43755;49.736;8.734;2023-03-20T11:25:49;14.75;;;13.05;;
11447;SDS011;43755;49.736;8.734;2023-03-20T11:27:53;16.60;;;13.55;;
11447;SDS011;43755;49.736;8.734;2023-03-20T11:29:55;15.50;;;12.32;;
11447;SDS011;43755;49.736;8.734;2023-03-20T11:32:02;14.95;;;12.57;;
11447;SDS011;43755;49.736;8.734;2023-03-20T11:34:10;13.70;;;12.13;;
11447;SDS011;43755;49.736;8.734;2023-03-20T11:36:24;12.98;;;11.68;;
11447;SDS011;43755;49.736;8.734;2023-03-20T11:38:29;12.70;;;11.43;;
11447;SDS011;43755;49.736;8.734;2023-03-20T11:40:32;11.65;;;10.45;;
11447;SDS011;43755;49.736;8.734;2023-03-20T11:42:34;10.38;;;9.30;;
11447;SDS011;43755;49.736;8.734;2023-03-20T11:44:36;10.55;;;9.45;;
11447;SDS011;43755;49.736;8.734;2023-03-20T11:46:37;10.43;;;9.20;;
11447;SDS011;43755;49.736;8.734;2023-03-20T11:48:40;10.70;;;9.15;;
11447;SDS011;43755;49.736;8.734;2023-03-20T11:50:44;10.20;;;8.80;;
11447;SDS011;43755;49.736;8.734;2023-03-20T11:52:50;9.18;;;8.27;;
11447;SDS011;43755;49.736;8.734;2023-03-20T11:54:53;9.13;;;8.00;;
11447;SDS011;43755;49.736;8.734;2023-03-20T11:56:57;8.90;;;8.00;;
11447;SDS011;43755;49.736;8.734;2023-03-20T11:59:00;8.38;;;7.55;;
11447;SDS011;43755;49.736;8.734;2023-03-20T12:01:06;8.20;;;7.28;;
11447;SDS011;43755;49.736;8.734;2023-03-20T12:03:32;10.00;;;8.50;;
11447;SDS011;43755;49.736;8.734;2023-03-20T12:05:37;9.27;;;8.38;;
11447;SDS011;43755;49.736;8.734;2023-03-20T12:07:39;9.30;;;8.15;;
11447;SDS011;43755;49.736;8.734;2023-03-20T12:09:43;9.65;;;8.50;;
11447;SDS011;43755;49.736;8.734;2023-03-20T12:11:51;10.20;;;9.10;;
11447;SDS011;43755;49.736;8.734;2023-03-20T12:13:55;10.27;;;9.15;;
11447;SDS011;43755;49.736;8.734;2023-03-20T12:16:02;10.43;;;9.43;;
11447;SDS011;43755;49.736;8.734;2023-03-20T12:18:07;10.55;;;9.43;;